Time;durP1;ratioP1;P1;durP2;ratioP2;P2;SDS_P1;SDS_P2;PMS_P1;PMS_P2;Temp;Humidity;BMP_temperature;BMP_pressure;BME280_temperature;BME280_humidity;BME280_pressure;Samples;Min_cycle;Max_cycle;Signal;HPM_P1;HPM_P2
2022/04/24 00:00:52;;;;;;;2.05;1.95;;;;;;;;;;2086309;28;20028;-68
2022/04/24 00:02:12;;;;;;;2.67;1.67;;;;;;;;;;2084596;28;20040;-67
2022/04/24 00:03:32;;;;;;;2.72;1.70;;;;;;;;;;2085538;28;20045;-69
2022/04/24 00:04:51;;;;;;;3.40;2.35;;;;;;;;;;2079850;28;20412;-67
2022/04/24 00:06:10;;;;;;;2.88;2.10;;;;;;;;;;2078214;28;20104;-67
2022/04/24 00:07:29;;;;;;;2.63;1.77;;;;;;;;;;2075420;28;20104;-68
2022/04/24 00:08:49;;;;;;;2.05;1.85;;;;;;;;;;2083636;28;20025;-67
2022/04/24 00:10:10;;;;;;;2.20;1.98;;;;;;;;;;2086583;28;20431;-68
2022/04/24 00:11:30;;;;;;;3.67;1.90;;;;;;;;;;2084810;28;20026;-67
2022/04/24 00:12:50;;;;;;;2.35;2.05;;;;;;;;;;2086589;28;20447;-67
2022/04/24 00:14:10;;;;;;;2.47;2.08;;;;;;;;;;2077187;28;20021;-66
2022/04/24 00:15:29;;;;;;;1.88;1.77;;;;;;;;;;2082719;28;20487;-67
2022/04/24 00:16:48;;;;;;;1.90;1.80;;;;;;;;;;2087937;28;20112;-68
2022/04/24 00:18:07;;;;;;;2.30;2.15;;;;;;;;;;2086602;28;20457;-67
2022/04/24 00:19:26;;;;;;;3.03;2.10;;;;;;;;;;2087985;28;20021;-67
2022/04/24 00:20:45;;;;;;;2.45;2.25;;;;;;;;;;2085318;28;20372;-67
2022/04/24 00:22:04;;;;;;;2.92;2.58;;;;;;;;;;2086692;28;20032;-67
2022/04/24 00:23:23;;;;;;;3.90;2.10;;;;;;;;;;2077340;28;20033;-67
2022/04/24 00:24:42;;;;;;;2.40;2.20;;;;;;;;;;2081921;28;20029;-67
2022/04/24 00:26:01;;;;;;;2.80;2.42;;;;;;;;;;2086278;28;20033;-67
2022/04/24 00:27:20;;;;;;;3.30;2.03;;;;;;;;;;2085513;28;20390;-66
2022/04/24 00:28:39;;;;;;;2.30;2.10;;;;;;;;;;2085895;28;20104;-67
2022/04/24 00:29:58;;;;;;;2.35;2.10;;;;;;;;;;2076307;28;20030;-67
2022/04/24 00:31:16;;;;;;;3.17;2.20;;;;;;;;;;2082449;28;20157;-68
2022/04/24 00:32:35;;;;;;;2.28;2.08;;;;;;;;;;2086281;28;20022;-67
2022/04/24 00:33:54;;;;;;;3.30;2.35;;;;;;;;;;2086119;28;20025;-67
2022/04/24 00:35:13;;;;;;;2.20;2.10;;;;;;;;;;2086449;28;20033;-67
2022/04/24 00:36:32;;;;;;;3.00;2.22;;;;;;;;;;2086009;28;20021;-67
2022/04/24 00:37:51;;;;;;;1.98;1.88;;;;;;;;;;2086107;28;20026;-67
2022/04/24 00:39:14;;;;;;;2.22;1.88;;;;;;;;;;2087012;28;20029;-67
2022/04/24 00:40:33;;;;;;;4.38;2.20;;;;;;;;;;2084927;28;20423;-69
2022/04/24 00:41:52;;;;;;;3.20;2.90;;;;;;;;;;2077647;28;20029;-67
2022/04/24 00:43:11;;;;;;;3.80;3.10;;;;;;;;;;2083853;28;20436;-68
2022/04/24 00:44:32;;;;;;;5.20;3.08;;;;;;;;;;2085096;28;20029;-67
2022/04/24 00:46:10;;;;;;;3.40;3.10;;;;;;;;;;2085906;28;20033;-66
2022/04/24 00:47:29;;;;;;;3.33;3.08;;;;;;;;;;2085138;28;20029;-69
2022/04/24 00:48:48;;;;;;;3.90;3.50;;;;;;;;;;2084336;28;20041;-67
2022/04/24 00:50:07;;;;;;;6.25;3.70;;;;;;;;;;2087101;28;20029;-66
2022/04/24 00:51:26;;;;;;;2.90;2.70;;;;;;;;;;2085171;28;20507;-67
2022/04/24 00:52:45;;;;;;;3.20;2.90;;;;;;;;;;2087123;28;20025;-67
2022/04/24 00:54:06;;;;;;;3.38;3.10;;;;;;;;;;2084811;28;20025;-66
2022/04/24 00:55:25;;;;;;;4.43;2.55;;;;;;;;;;2084841;28;20479;-66
2022/04/24 00:56:44;;;;;;;3.38;3.00;;;;;;;;;;2086730;28;20042;-67
2022/04/24 00:58:03;;;;;;;2.58;2.40;;;;;;;;;;2086280;28;20108;-66
2022/04/24 00:59:22;;;;;;;3.50;2.55;;;;;;;;;;2084742;28;20053;-66
2022/04/24 01:00:41;;;;;;;2.67;2.33;;;;;;;;;;2085872;28;20034;-66
2022/04/24 01:02:04;;;;;;;2.30;2.20;;;;;;;;;;2086461;28;20037;-66
2022/04/24 01:03:23;;;;;;;2.55;2.30;;;;;;;;;;2086345;28;20060;-66
2022/04/24 01:04:42;;;;;;;2.45;2.30;;;;;;;;;;2084744;28;20029;-66
2022/04/24 01:06:02;;;;;;;2.13;2.00;;;;;;;;;;2086425;28;20037;-66
2022/04/24 01:07:21;;;;;;;1.90;1.80;;;;;;;;;;2086653;28;20471;-67
2022/04/24 01:08:40;;;;;;;2.85;1.92;;;;;;;;;;2085857;28;20383;-66
2022/04/24 01:10:00;;;;;;;2.65;2.45;;;;;;;;;;2085745;28;20033;-67
2022/04/24 01:11:18;;;;;;;2.63;1.90;;;;;;;;;;2084049;28;20033;-66
2022/04/24 01:12:37;;;;;;;1.98;1.88;;;;;;;;;;2075902;28;20026;-66
2022/04/24 01:13:57;;;;;;;2.38;2.20;;;;;;;;;;2073198;28;20094;-66
2022/04/24 01:15:16;;;;;;;4.40;2.10;;;;;;;;;;2081931;28;20029;-66
2022/04/24 01:16:35;;;;;;;2.47;1.90;;;;;;;;;;2077675;28;20089;-66
2022/04/24 01:17:56;;;;;;;2.58;1.70;;;;;;;;;;2083043;28;20081;-66
2022/04/24 01:19:16;;;;;;;2.17;2.00;;;;;;;;;;2083351;28;20037;-66
2022/04/24 01:20:35;;;;;;;2.30;2.17;;;;;;;;;;2085663;28;20030;-66
2022/04/24 01:21:55;;;;;;;2.28;1.90;;;;;;;;;;2083865;28;20500;-66
2022/04/24 01:23:14;;;;;;;3.05;2.10;;;;;;;;;;2079239;28;20484;-66
2022/04/24 01:24:33;;;;;;;2.60;2.40;;;;;;;;;;2082033;28;20381;-67
2022/04/24 01:25:51;;;;;;;1.95;1.83;;;;;;;;;;2086590;28;20045;-67
2022/04/24 01:27:10;;;;;;;2.88;2.35;;;;;;;;;;2085302;28;20021;-66
2022/04/24 01:28:29;;;;;;;2.10;2.00;;;;;;;;;;2089417;28;20036;-66
2022/04/24 01:29:48;;;;;;;2.75;2.25;;;;;;;;;;2084444;28;20026;-67
2022/04/24 01:31:07;;;;;;;2.25;2.10;;;;;;;;;;2087012;28;20033;-66
2022/04/24 01:32:26;;;;;;;2.45;2.00;;;;;;;;;;2083647;28;20025;-66
2022/04/24 01:33:45;;;;;;;1.95;1.85;;;;;;;;;;2084740;28;20029;-66
2022/04/24 01:35:05;;;;;;;4.47;2.38;;;;;;;;;;2084649;28;20029;-67
2022/04/24 01:36:23;;;;;;;2.95;2.10;;;;;;;;;;2088094;28;20021;-66
2022/04/24 01:37:43;;;;;;;2.20;2.00;;;;;;;;;;2086723;28;20021;-66
2022/04/24 01:39:03;;;;;;;2.20;2.10;;;;;;;;;;2084742;28;20491;-66
2022/04/24 01:40:22;;;;;;;2.20;2.10;;;;;;;;;;2084280;28;20030;-66
2022/04/24 01:41:41;;;;;;;2.20;2.10;;;;;;;;;;2085327;28;20033;-66
2022/04/24 01:43:00;;;;;;;2.08;1.98;;;;;;;;;;2086132;28;20029;-66
2022/04/24 01:44:19;;;;;;;2.00;1.80;;;;;;;;;;2086387;28;20037;-66
2022/04/24 01:45:38;;;;;;;3.38;2.05;;;;;;;;;;2084206;28;20029;-67
2022/04/24 01:46:57;;;;;;;1.83;1.73;;;;;;;;;;2083503;28;20041;-67
2022/04/24 01:48:16;;;;;;;3.15;2.03;;;;;;;;;;2085956;28;20037;-68
2022/04/24 01:49:35;;;;;;;2.40;2.20;;;;;;;;;;2084952;28;20034;-67
2022/04/24 01:50:54;;;;;;;1.80;1.65;;;;;;;;;;2084294;28;20464;-66
2022/04/24 01:52:13;;;;;;;2.00;1.90;;;;;;;;;;2077167;28;20495;-66
2022/04/24 01:53:32;;;;;;;1.92;1.83;;;;;;;;;;2083153;28;20022;-66
2022/04/24 01:54:51;;;;;;;2.45;2.25;;;;;;;;;;2084666;28;20430;-66
2022/04/24 01:56:11;;;;;;;2.28;2.08;;;;;;;;;;2085579;28;20503;-66
2022/04/24 01:57:30;;;;;;;1.80;1.70;;;;;;;;;;2085987;28;20479;-67
2022/04/24 01:58:49;;;;;;;2.30;2.20;;;;;;;;;;2084234;28;20057;-66
2022/04/24 02:00:08;;;;;;;2.03;1.90;;;;;;;;;;2085803;28;20045;-66
2022/04/24 02:01:27;;;;;;;2.65;2.10;;;;;;;;;;2082865;28;22063;-69
2022/04/24 02:02:47;;;;;;;2.10;1.95;;;;;;;;;;2085103;28;20029;-68
2022/04/24 02:04:06;;;;;;;2.05;1.85;;;;;;;;;;2075289;28;20038;-67
2022/04/24 02:05:25;;;;;;;2.08;1.90;;;;;;;;;;2083215;28;20025;-68
2022/04/24 02:06:44;;;;;;;3.25;1.50;;;;;;;;;;2086970;28;20514;-67
2022/04/24 02:08:03;;;;;;;2.35;1.92;;;;;;;;;;2087998;28;20037;-68
2022/04/24 02:09:22;;;;;;;3.22;1.92;;;;;;;;;;2084767;28;20107;-67
2022/04/24 02:10:41;;;;;;;1.92;1.73;;;;;;;;;;2085374;28;20063;-67
2022/04/24 02:12:00;;;;;;;1.88;1.70;;;;;;;;;;2085089;28;20587;-67
2022/04/24 02:13:19;;;;;;;2.00;1.83;;;;;;;;;;2086345;28;20029;-68
2022/04/24 02:14:38;;;;;;;2.67;1.77;;;;;;;;;;2083401;28;20025;-68
2022/04/24 02:15:57;;;;;;;2.03;1.83;;;;;;;;;;2085927;28;20021;-68
2022/04/24 02:17:16;;;;;;;3.40;1.65;;;;;;;;;;2083096;28;20029;-68
2022/04/24 02:18:34;;;;;;;1.75;1.65;;;;;;;;;;2086050;28;20033;-67
2022/04/24 02:19:53;;;;;;;1.70;1.60;;;;;;;;;;2083609;28;20500;-68
2022/04/24 02:21:13;;;;;;;1.77;1.67;;;;;;;;;;2085471;28;20484;-68
2022/04/24 02:22:33;;;;;;;2.58;1.45;;;;;;;;;;2076915;28;20029;-67
2022/04/24 02:23:52;;;;;;;1.95;1.85;;;;;;;;;;2081119;28;20029;-68
2022/04/24 02:25:11;;;;;;;1.98;1.70;;;;;;;;;;2077531;28;20030;-68
2022/04/24 02:26:30;;;;;;;1.75;1.65;;;;;;;;;;2083951;28;20025;-68
2022/04/24 02:27:50;;;;;;;1.83;1.73;;;;;;;;;;2084288;28;20032;-68
2022/04/24 02:29:08;;;;;;;1.92;1.70;;;;;;;;;;2083864;28;20029;-67
2022/04/24 02:30:28;;;;;;;1.75;1.65;;;;;;;;;;2077434;28;20030;-68
2022/04/24 02:31:47;;;;;;;1.77;1.67;;;;;;;;;;2081563;28;20037;-68
2022/04/24 02:33:06;;;;;;;2.53;1.73;;;;;;;;;;2084922;28;20418;-66
2022/04/24 02:34:26;;;;;;;4.32;2.15;;;;;;;;;;2085947;28;20529;-68
2022/04/24 02:35:45;;;;;;;1.77;1.67;;;;;;;;;;2085903;28;20041;-67
2022/04/24 02:37:04;;;;;;;1.67;1.52;;;;;;;;;;2075192;28;20034;-68
2022/04/24 02:38:23;;;;;;;1.70;1.60;;;;;;;;;;2082200;28;20067;-68
2022/04/24 02:39:42;;;;;;;4.93;1.83;;;;;;;;;;2085645;28;20033;-68
2022/04/24 02:41:01;;;;;;;1.70;1.60;;;;;;;;;;2085784;28;20399;-68
2022/04/24 02:42:20;;;;;;;1.73;1.63;;;;;;;;;;2075722;28;20025;-71
2022/04/24 02:43:39;;;;;;;1.80;1.70;;;;;;;;;;2072947;28;20022;-68
2022/04/24 02:44:58;;;;;;;1.75;1.65;;;;;;;;;;2072780;28;20050;-68
2022/04/24 02:46:17;;;;;;;1.77;1.50;;;;;;;;;;2083730;28;20029;-68
2022/04/24 02:47:39;;;;;;;4.05;1.60;;;;;;;;;;2083740;28;20507;-68
2022/04/24 02:48:58;;;;;;;1.63;1.52;;;;;;;;;;2083595;28;20073;-68
2022/04/24 02:50:17;;;;;;;2.63;1.60;;;;;;;;;;2084128;28;20025;-68
2022/04/24 02:51:36;;;;;;;1.70;1.60;;;;;;;;;;2084444;28;20105;-68
2022/04/24 02:52:55;;;;;;;2.00;1.90;;;;;;;;;;2085516;28;20034;-68
2022/04/24 02:54:14;;;;;;;1.58;1.50;;;;;;;;;;2087422;28;20029;-68
2022/04/24 02:55:33;;;;;;;1.60;1.50;;;;;;;;;;2084063;28;20025;-68
2022/04/24 02:56:52;;;;;;;1.90;1.80;;;;;;;;;;2084430;28;20017;-68
2022/04/24 02:58:11;;;;;;;1.60;1.50;;;;;;;;;;2083726;28;20421;-69
2022/04/24 02:59:32;;;;;;;2.20;1.67;;;;;;;;;;2085543;28;20061;-68
2022/04/24 03:00:51;;;;;;;1.80;1.70;;;;;;;;;;2083547;28;20033;-67
2022/04/24 03:02:09;;;;;;;1.58;1.48;;;;;;;;;;2086642;28;20100;-68
2022/04/24 03:03:28;;;;;;;2.47;1.70;;;;;;;;;;2082273;28;20029;-66
2022/04/24 03:04:47;;;;;;;1.48;1.38;;;;;;;;;;2084786;28;20034;-68
2022/04/24 03:06:06;;;;;;;2.13;1.55;;;;;;;;;;2086174;28;20108;-68
2022/04/24 03:07:25;;;;;;;2.45;1.67;;;;;;;;;;2085204;28;20405;-67
2022/04/24 03:08:46;;;;;;;1.60;1.50;;;;;;;;;;2086320;28;20067;-68
2022/04/24 03:10:08;;;;;;;2.35;1.75;;;;;;;;;;2085558;28;20026;-68
2022/04/24 03:11:27;;;;;;;1.73;1.63;;;;;;;;;;2084880;28;20021;-67
2022/04/24 03:12:46;;;;;;;3.35;1.33;;;;;;;;;;2085833;28;20036;-68
2022/04/24 03:14:05;;;;;;;1.70;1.60;;;;;;;;;;2086346;28;20120;-68
2022/04/24 03:15:24;;;;;;;1.70;1.60;;;;;;;;;;2075453;28;20220;-68
2022/04/24 03:16:43;;;;;;;1.70;1.60;;;;;;;;;;2079942;28;20026;-68
2022/04/24 03:18:02;;;;;;;1.40;1.30;;;;;;;;;;2083728;28;20068;-68
2022/04/24 03:19:21;;;;;;;4.10;1.58;;;;;;;;;;2083834;28;20033;-68
2022/04/24 03:20:40;;;;;;;1.50;1.40;;;;;;;;;;2084431;28;20064;-68
2022/04/24 03:21:59;;;;;;;2.35;1.70;;;;;;;;;;2086095;28;20033;-67
2022/04/24 03:23:18;;;;;;;2.95;1.67;;;;;;;;;;2085973;28;20037;-68
2022/04/24 03:24:37;;;;;;;1.92;1.73;;;;;;;;;;2084627;28;20029;-68
2022/04/24 03:25:56;;;;;;;3.20;1.40;;;;;;;;;;2088278;28;20060;-68
2022/04/24 03:27:15;;;;;;;3.72;1.90;;;;;;;;;;2084923;28;20029;-67
2022/04/24 03:28:34;;;;;;;1.70;1.60;;;;;;;;;;2083804;28;20480;-68
2022/04/24 03:29:53;;;;;;;1.90;1.67;;;;;;;;;;2075380;28;20021;-68
2022/04/24 03:31:12;;;;;;;1.90;1.63;;;;;;;;;;2074312;28;20419;-68
2022/04/24 03:32:31;;;;;;;1.90;1.60;;;;;;;;;;2080051;28;20101;-68
2022/04/24 03:33:52;;;;;;;1.60;1.50;;;;;;;;;;2086502;28;20025;-68
2022/04/24 03:35:11;;;;;;;1.60;1.50;;;;;;;;;;2074932;28;20030;-68
2022/04/24 03:36:29;;;;;;;2.60;1.95;;;;;;;;;;2081890;28;20136;-68
2022/04/24 03:37:48;;;;;;;1.55;1.40;;;;;;;;;;2084894;28;20488;-68
2022/04/24 03:39:07;;;;;;;2.28;1.70;;;;;;;;;;2084308;28;20083;-67
2022/04/24 03:40:26;;;;;;;3.25;1.58;;;;;;;;;;2083494;28;20033;-67
2022/04/24 03:41:45;;;;;;;2.67;1.70;;;;;;;;;;2085669;28;20037;-69
2022/04/24 03:43:05;;;;;;;1.50;1.40;;;;;;;;;;2077470;28;20038;-67
2022/04/24 03:44:24;;;;;;;2.13;1.92;;;;;;;;;;2083315;28;20437;-67
2022/04/24 03:45:43;;;;;;;1.83;1.40;;;;;;;;;;2085349;28;20028;-68
2022/04/24 03:47:02;;;;;;;2.20;1.33;;;;;;;;;;2075505;28;20112;-67
2022/04/24 03:48:21;;;;;;;1.55;1.45;;;;;;;;;;2080160;28;20065;-67
2022/04/24 03:49:40;;;;;;;2.97;1.88;;;;;;;;;;2083834;28;20388;-66
2022/04/24 03:50:58;;;;;;;1.70;1.60;;;;;;;;;;2083667;28;20017;-67
2022/04/24 03:52:18;;;;;;;1.58;1.38;;;;;;;;;;2077852;28;20029;-67
2022/04/24 03:53:36;;;;;;;2.22;1.60;;;;;;;;;;2081559;28;20119;-68
2022/04/24 03:54:55;;;;;;;1.60;1.50;;;;;;;;;;2085903;28;20064;-68
2022/04/24 03:56:14;;;;;;;1.73;1.63;;;;;;;;;;2085312;28;20030;-67
2022/04/24 03:57:33;;;;;;;1.60;1.48;;;;;;;;;;2085463;28;20587;-67
2022/04/24 03:58:53;;;;;;;2.72;1.33;;;;;;;;;;2084125;28;20037;-67
2022/04/24 04:00:12;;;;;;;1.67;1.58;;;;;;;;;;2084509;28;20475;-67
2022/04/24 04:01:32;;;;;;;1.33;1.23;;;;;;;;;;2085819;28;21599;-66
2022/04/24 04:02:52;;;;;;;1.73;1.45;;;;;;;;;;2087486;28;20021;-66
2022/04/24 04:04:11;;;;;;;1.45;1.30;;;;;;;;;;2076050;28;20674;-67
2022/04/24 04:05:30;;;;;;;1.50;1.40;;;;;;;;;;2081898;28;20041;-67
2022/04/24 04:06:49;;;;;;;1.15;1.00;;;;;;;;;;2087346;28;20033;-68
2022/04/24 04:08:08;;;;;;;2.10;1.30;;;;;;;;;;2078093;28;20037;-66
2022/04/24 04:09:27;;;;;;;2.47;1.17;;;;;;;;;;2082407;28;20041;-69
2022/04/24 04:10:45;;;;;;;2.17;1.50;;;;;;;;;;2086613;28;20022;-67
2022/04/24 04:12:06;;;;;;;1.60;1.50;;;;;;;;;;2086924;28;20471;-67
2022/04/24 04:13:25;;;;;;;4.72;1.40;;;;;;;;;;2079714;28;20037;-67
2022/04/24 04:14:44;;;;;;;1.13;1.10;;;;;;;;;;2082100;28;20057;-66
2022/04/24 04:16:03;;;;;;;3.03;1.13;;;;;;;;;;2086449;28;20484;-67
2022/04/24 04:17:22;;;;;;;1.30;1.20;;;;;;;;;;2085613;28;20047;-67
2022/04/24 04:18:41;;;;;;;1.58;1.40;;;;;;;;;;2084342;28;20037;-67
2022/04/24 04:20:00;;;;;;;1.30;1.20;;;;;;;;;;2085746;28;20025;-67
2022/04/24 04:21:19;;;;;;;1.40;1.30;;;;;;;;;;2086967;28;20025;-67
2022/04/24 04:22:45;;;;;;;2.75;1.30;;;;;;;;;;2084506;28;20021;-67
2022/04/24 04:24:04;;;;;;;1.27;1.27;;;;;;;;;;2086357;28;20036;-67
2022/04/24 04:25:24;;;;;;;1.65;1.08;;;;;;;;;;2085077;28;20037;-68
2022/04/24 04:26:42;;;;;;;2.22;1.27;;;;;;;;;;2076379;28;20029;-67
2022/04/24 04:28:01;;;;;;;1.95;1.50;;;;;;;;;;2081212;28;20073;-66
2022/04/24 04:29:20;;;;;;;1.23;1.05;;;;;;;;;;2084818;28;20021;-66
2022/04/24 04:30:39;;;;;;;1.20;1.08;;;;;;;;;;2084828;28;20018;-69
2022/04/24 04:31:58;;;;;;;3.15;1.20;;;;;;;;;;2076459;28;20065;-67
2022/04/24 04:33:17;;;;;;;2.17;1.30;;;;;;;;;;2084716;28;20498;-68
2022/04/24 04:34:36;;;;;;;1.95;1.27;;;;;;;;;;2088288;28;20028;-66
2022/04/24 04:35:55;;;;;;;1.33;0.90;;;;;;;;;;2085111;28;20052;-67
2022/04/24 04:37:14;;;;;;;1.35;1.25;;;;;;;;;;2086350;28;20029;-67
2022/04/24 04:38:33;;;;;;;2.47;1.10;;;;;;;;;;2087143;28;20042;-67
2022/04/24 04:39:52;;;;;;;1.05;0.95;;;;;;;;;;2085480;28;20084;-66
2022/04/24 04:41:11;;;;;;;0.90;0.90;;;;;;;;;;2086406;28;20403;-66
2022/04/24 04:42:30;;;;;;;2.40;1.10;;;;;;;;;;2085159;28;20475;-66
2022/04/24 04:43:49;;;;;;;1.15;1.13;;;;;;;;;;2084906;28;20037;-66
2022/04/24 04:45:09;;;;;;;2.70;1.58;;;;;;;;;;2085236;28;20041;-66
2022/04/24 04:46:28;;;;;;;1.15;1.05;;;;;;;;;;2084046;28;20025;-65
2022/04/24 04:47:47;;;;;;;2.17;1.23;;;;;;;;;;2085077;28;20120;-66
2022/04/24 04:49:06;;;;;;;1.85;1.33;;;;;;;;;;2085426;28;20119;-66
2022/04/24 04:50:25;;;;;;;3.17;1.08;;;;;;;;;;2085871;28;20025;-66
2022/04/24 04:51:44;;;;;;;2.22;1.05;;;;;;;;;;2087210;28;20022;-67
2022/04/24 04:53:03;;;;;;;1.20;1.10;;;;;;;;;;2076361;28;20205;-67
2022/04/24 04:54:22;;;;;;;2.00;1.00;;;;;;;;;;2078429;28;20033;-66
2022/04/24 04:55:42;;;;;;;2.65;0.95;;;;;;;;;;2080948;28;20121;-66
2022/04/24 04:57:00;;;;;;;1.83;1.17;;;;;;;;;;2077086;28;20018;-67
2022/04/24 04:58:19;;;;;;;1.52;1.10;;;;;;;;;;2084373;28;20426;-67
2022/04/24 04:59:38;;;;;;;2.05;1.00;;;;;;;;;;2086457;28;20476;-67
2022/04/24 05:01:00;;;;;;;0.85;0.85;;;;;;;;;;2085992;28;20116;-66
2022/04/24 05:02:18;;;;;;;2.72;1.00;;;;;;;;;;2084911;28;20025;-67
2022/04/24 05:03:37;;;;;;;1.83;1.02;;;;;;;;;;2084167;28;20029;-68
2022/04/24 05:04:58;;;;;;;1.15;1.05;;;;;;;;;;2085621;28;20037;-68
2022/04/24 05:06:17;;;;;;;2.47;0.93;;;;;;;;;;2083481;28;20037;-68
2022/04/24 05:07:36;;;;;;;1.08;1.00;;;;;;;;;;2084928;28;20037;-68
2022/04/24 05:08:55;;;;;;;1.10;1.00;;;;;;;;;;2078141;28;20516;-67
2022/04/24 05:10:14;;;;;;;1.92;1.13;;;;;;;;;;2081420;28;20037;-68
2022/04/24 05:11:33;;;;;;;1.00;1.00;;;;;;;;;;2085198;28;20017;-67
2022/04/24 05:12:51;;;;;;;1.25;1.08;;;;;;;;;;2085633;28;20112;-67
2022/04/24 05:14:11;;;;;;;1.25;1.15;;;;;;;;;;2084886;28;20021;-68
2022/04/24 05:15:30;;;;;;;1.35;0.93;;;;;;;;;;2085502;28;20475;-68
2022/04/24 05:16:49;;;;;;;2.70;1.13;;;;;;;;;;2084795;28;20080;-68
2022/04/24 05:18:08;;;;;;;1.15;1.08;;;;;;;;;;2077175;28;20038;-68
2022/04/24 05:19:27;;;;;;;1.42;1.10;;;;;;;;;;2080681;28;20030;-68
2022/04/24 05:20:46;;;;;;;1.45;1.27;;;;;;;;;;2075145;28;20624;-68
2022/04/24 05:22:05;;;;;;;1.02;0.93;;;;;;;;;;2080437;28;20029;-69
2022/04/24 05:23:24;;;;;;;2.13;1.35;;;;;;;;;;2085408;28;20072;-68
2022/04/24 05:24:43;;;;;;;1.10;0.85;;;;;;;;;;2075090;28;20534;-68
2022/04/24 05:26:02;;;;;;;1.35;1.10;;;;;;;;;;2073704;28;20463;-67
2022/04/24 05:27:22;;;;;;;1.15;0.80;;;;;;;;;;2073644;28;20483;-69
2022/04/24 05:28:41;;;;;;;2.58;1.05;;;;;;;;;;2072315;28;20038;-68
2022/04/24 05:29:59;;;;;;;1.35;1.25;;;;;;;;;;2082486;28;20033;-68
2022/04/24 05:31:19;;;;;;;2.05;1.08;;;;;;;;;;2085499;28;20021;-68
2022/04/24 05:32:38;;;;;;;1.20;0.95;;;;;;;;;;2085151;28;20029;-69
2022/04/24 05:33:57;;;;;;;1.55;1.20;;;;;;;;;;2084822;28;20030;-68
2022/04/24 05:35:16;;;;;;;1.52;1.00;;;;;;;;;;2085075;28;20399;-68
2022/04/24 05:36:35;;;;;;;1.10;1.00;;;;;;;;;;2084553;28;20041;-68
2022/04/24 05:37:54;;;;;;;3.45;1.10;;;;;;;;;;2078911;28;20034;-68
2022/04/24 05:39:13;;;;;;;1.20;1.10;;;;;;;;;;2082527;28;20116;-68
2022/04/24 05:40:32;;;;;;;2.33;1.60;;;;;;;;;;2083411;28;20115;-68
2022/04/24 05:41:51;;;;;;;1.95;1.17;;;;;;;;;;2085204;28;20033;-68
2022/04/24 05:43:10;;;;;;;1.33;1.23;;;;;;;;;;2086986;28;20021;-68
2022/04/24 05:44:29;;;;;;;2.67;1.15;;;;;;;;;;2086281;28;20484;-68
2022/04/24 05:45:48;;;;;;;4.25;1.08;;;;;;;;;;2086281;28;20040;-68
2022/04/24 05:47:07;;;;;;;1.10;1.10;;;;;;;;;;2083926;28;20033;-68
2022/04/24 05:48:26;;;;;;;1.83;1.65;;;;;;;;;;2083542;28;20941;-68
2022/04/24 05:49:45;;;;;;;1.60;1.00;;;;;;;;;;2084282;28;20026;-69
2022/04/24 05:51:04;;;;;;;2.95;1.00;;;;;;;;;;2083047;28;20424;-68
2022/04/24 05:52:24;;;;;;;1.35;1.08;;;;;;;;;;2084566;28;20033;-68
2022/04/24 05:53:42;;;;;;;3.17;1.25;;;;;;;;;;2074351;28;20520;-68
2022/04/24 05:55:02;;;;;;;2.05;0.80;;;;;;;;;;2080516;28;20045;-68
2022/04/24 05:56:21;;;;;;;2.17;1.20;;;;;;;;;;2086673;28;20025;-68
2022/04/24 05:57:40;;;;;;;1.50;0.90;;;;;;;;;;2083092;28;20025;-68
2022/04/24 05:58:58;;;;;;;1.80;1.30;;;;;;;;;;2086451;28;20025;-68
2022/04/24 06:00:18;;;;;;;1.30;1.20;;;;;;;;;;2083964;28;20037;-68
2022/04/24 06:01:37;;;;;;;1.60;1.00;;;;;;;;;;2084963;28;20033;-68
2022/04/24 06:02:56;;;;;;;1.40;1.08;;;;;;;;;;2084675;28;20028;-68
2022/04/24 06:04:15;;;;;;;3.38;1.00;;;;;;;;;;2077299;28;20017;-68
2022/04/24 06:05:34;;;;;;;3.03;1.17;;;;;;;;;;2072810;28;20030;-68
2022/04/24 06:06:52;;;;;;;2.53;1.10;;;;;;;;;;2071987;28;20026;-67
2022/04/24 06:08:11;;;;;;;3.95;1.30;;;;;;;;;;2082949;28;20480;-67
2022/04/24 06:09:30;;;;;;;1.42;1.08;;;;;;;;;;2086309;28;20037;-67
2022/04/24 06:10:49;;;;;;;2.78;1.10;;;;;;;;;;2075319;28;20030;-69
2022/04/24 06:12:09;;;;;;;3.67;1.00;;;;;;;;;;2073855;28;20033;-68
2022/04/24 06:13:28;;;;;;;1.52;0.90;;;;;;;;;;2075261;28;20025;-65
2022/04/24 06:14:47;;;;;;;3.80;1.30;;;;;;;;;;2082420;28;20021;-68
2022/04/24 06:16:06;;;;;;;1.30;0.80;;;;;;;;;;2085253;28;20025;-68
2022/04/24 06:17:24;;;;;;;1.10;1.00;;;;;;;;;;2075614;28;20086;-69
2022/04/24 06:18:43;;;;;;;4.00;0.95;;;;;;;;;;2083504;28;20025;-68
2022/04/24 06:20:02;;;;;;;1.02;0.82;;;;;;;;;;2076106;28;20033;-68
2022/04/24 06:21:21;;;;;;;0.93;0.82;;;;;;;;;;2081528;28;20443;-68
2022/04/24 06:22:48;;;;;;;1.65;0.93;;;;;;;;;;2083396;28;20029;-69
2022/04/24 06:24:07;;;;;;;0.80;0.80;;;;;;;;;;2086202;28;20128;-69
2022/04/24 06:25:26;;;;;;;0.93;0.93;;;;;;;;;;2083547;28;20026;-68
2022/04/24 06:26:45;;;;;;;1.95;1.08;;;;;;;;;;2084632;28;20029;-68
2022/04/24 06:28:04;;;;;;;0.80;0.80;;;;;;;;;;2073886;28;20101;-68
2022/04/24 06:29:23;;;;;;;3.40;0.93;;;;;;;;;;2080911;28;20498;-68
2022/04/24 06:30:42;;;;;;;1.65;0.98;;;;;;;;;;2082708;28;20029;-68
2022/04/24 06:32:04;;;;;;;1.05;0.80;;;;;;;;;;2081988;28;20033;-68
2022/04/24 06:33:23;;;;;;;2.60;0.93;;;;;;;;;;2085252;28;20057;-68
2022/04/24 06:34:43;;;;;;;1.00;0.90;;;;;;;;;;2084465;28;20017;-68
2022/04/24 06:36:02;;;;;;;0.80;0.80;;;;;;;;;;2085601;28;20029;-67
2022/04/24 06:37:21;;;;;;;2.03;1.00;;;;;;;;;;2076273;28;20025;-70
2022/04/24 06:38:40;;;;;;;0.70;0.70;;;;;;;;;;2080246;28;20037;-68
2022/04/24 06:39:59;;;;;;;1.02;0.75;;;;;;;;;;2087294;28;20030;-70
2022/04/24 06:41:17;;;;;;;0.70;0.70;;;;;;;;;;2083899;28;20037;-67
2022/04/24 06:42:50;;;;;;;2.38;0.80;;;;;;;;;;2086641;28;20029;-68
2022/04/24 06:44:08;;;;;;;0.82;0.82;;;;;;;;;;2082272;28;20045;-68
2022/04/24 06:45:35;;;;;;;1.15;1.08;;;;;;;;;;2074602;28;20033;-68
2022/04/24 06:46:54;;;;;;;1.67;0.60;;;;;;;;;;2082437;28;20033;-67
2022/04/24 06:48:14;;;;;;;3.80;1.10;;;;;;;;;;2085432;28;20208;-68
2022/04/24 06:49:33;;;;;;;2.10;0.98;;;;;;;;;;2087137;28;20041;-68
2022/04/24 06:50:52;;;;;;;0.93;0.93;;;;;;;;;;2083472;28;20108;-67
2022/04/24 06:52:11;;;;;;;2.28;0.80;;;;;;;;;;2084253;28;20033;-68
2022/04/24 06:53:30;;;;;;;3.53;0.85;;;;;;;;;;2085760;28;20057;-68
2022/04/24 06:54:49;;;;;;;3.38;1.52;;;;;;;;;;2083123;28;20022;-68
2022/04/24 06:56:08;;;;;;;2.00;0.77;;;;;;;;;;2085076;28;20380;-68
2022/04/24 06:57:27;;;;;;;3.42;1.15;;;;;;;;;;2084879;28;20491;-69
2022/04/24 06:58:47;;;;;;;3.65;0.98;;;;;;;;;;2075776;28;20033;-68
2022/04/24 07:00:06;;;;;;;0.77;0.77;;;;;;;;;;2079680;28;20030;-68
2022/04/24 07:01:26;;;;;;;2.33;1.13;;;;;;;;;;2074690;28;20068;-68
2022/04/24 07:02:46;;;;;;;3.47;2.80;;;;;;;;;;2081747;28;20096;-68
2022/04/24 07:04:05;;;;;;;1.35;1.00;;;;;;;;;;2076917;28;20037;-68
2022/04/24 07:05:25;;;;;;;1.15;1.00;;;;;;;;;;2081153;28;20029;-68
2022/04/24 07:06:44;;;;;;;3.22;1.98;;;;;;;;;;2077578;28;20116;-67
2022/04/24 07:08:03;;;;;;;1.00;0.88;;;;;;;;;;2082829;28;20109;-68
2022/04/24 07:09:21;;;;;;;3.72;1.17;;;;;;;;;;2074214;28;20512;-70
2022/04/24 07:10:40;;;;;;;1.65;1.25;;;;;;;;;;2080831;28;20029;-66
2022/04/24 07:11:59;;;;;;;2.17;0.98;;;;;;;;;;2074916;28;20037;-68
2022/04/24 07:13:18;;;;;;;5.18;1.00;;;;;;;;;;2080491;28;20104;-67
2022/04/24 07:14:38;;;;;;;2.55;1.20;;;;;;;;;;2084094;28;20025;-68
2022/04/24 07:15:56;;;;;;;1.20;1.10;;;;;;;;;;2083076;28;20508;-67
2022/04/24 07:17:15;;;;;;;1.25;0.98;;;;;;;;;;2085026;28;20037;-68
2022/04/24 07:18:35;;;;;;;0.90;0.82;;;;;;;;;;2085246;28;20056;-67
2022/04/24 07:19:54;;;;;;;1.23;0.90;;;;;;;;;;2075312;28;20038;-67
2022/04/24 07:21:13;;;;;;;1.20;0.70;;;;;;;;;;2082446;28;20222;-68
2022/04/24 07:22:51;;;;;;;1.00;0.80;;;;;;;;;;2080025;28;20037;-67
2022/04/24 07:24:10;;;;;;;0.88;0.80;;;;;;;;;;2082937;28;20491;-66
2022/04/24 07:25:33;;;;;;;0.88;0.82;;;;;;;;;;2083680;28;20030;-67
2022/04/24 07:26:51;;;;;;;1.50;0.73;;;;;;;;;;2082027;28;20495;-67
2022/04/24 07:28:11;;;;;;;1.42;0.82;;;;;;;;;;2085862;28;20056;-66
2022/04/24 07:29:30;;;;;;;1.67;0.90;;;;;;;;;;2075817;28;20037;-67
2022/04/24 07:30:49;;;;;;;1.77;1.00;;;;;;;;;;2082820;28;20017;-68
2022/04/24 07:32:11;;;;;;;0.80;0.80;;;;;;;;;;2077219;28;20109;-69
2022/04/24 07:33:30;;;;;;;1.00;0.80;;;;;;;;;;2084352;28;20487;-68
2022/04/24 07:34:49;;;;;;;0.82;0.82;;;;;;;;;;2077060;28;20018;-68
2022/04/24 07:36:11;;;;;;;2.33;0.85;;;;;;;;;;2082539;28;20028;-68
2022/04/24 07:37:33;;;;;;;1.15;1.00;;;;;;;;;;2086319;28;20112;-66
2022/04/24 07:38:55;;;;;;;0.77;0.77;;;;;;;;;;2086591;28;20073;-70
2022/04/24 07:40:15;;;;;;;0.85;0.85;;;;;;;;;;2075345;28;20037;-67
2022/04/24 07:41:35;;;;;;;0.90;0.80;;;;;;;;;;2078754;28;20029;-69
2022/04/24 07:42:55;;;;;;;2.78;0.70;;;;;;;;;;2080664;28;20041;-67
2022/04/24 07:44:14;;;;;;;1.42;0.90;;;;;;;;;;2076500;28;20054;-68
2022/04/24 07:45:42;;;;;;;1.35;0.88;;;;;;;;;;2085086;28;20483;-70
2022/04/24 07:47:01;;;;;;;2.35;0.80;;;;;;;;;;2085887;28;20029;-70
2022/04/24 07:48:20;;;;;;;2.25;0.80;;;;;;;;;;2076737;28;20065;-69
2022/04/24 07:49:40;;;;;;;1.08;1.02;;;;;;;;;;2076583;28;20038;-69
2022/04/24 07:50:59;;;;;;;0.60;0.60;;;;;;;;;;2076994;28;20029;-69
2022/04/24 07:52:19;;;;;;;0.80;0.60;;;;;;;;;;2081472;28;20108;-70
2022/04/24 07:53:41;;;;;;;1.00;0.90;;;;;;;;;;2078863;28;20030;-69
2022/04/24 07:55:00;;;;;;;0.93;0.70;;;;;;;;;;2075250;28;20104;-68
2022/04/24 07:56:19;;;;;;;1.48;1.02;;;;;;;;;;2086319;28;20037;-69